createdAt,value
2023-02-01T00:00:18.069Z,69.90
2023-02-01T00:02:20.005Z,69.70
2023-02-01T00:04:21.809Z,70.00
2023-02-01T00:06:23.480Z,69.70
2023-02-01T00:08:25.098Z,69.80
2023-02-01T00:10:26.723Z,69.50
2023-02-01T00:12:28.375Z,69.70
2023-02-01T00:14:30.511Z,69.90
2023-02-01T00:16:32.649Z,69.60
2023-02-01T00:18:34.670Z,69.70
2023-02-01T00:20:36.297Z,69.70
2023-02-01T00:22:37.930Z,69.70
2023-02-01T00:24:39.619Z,69.40
2023-02-01T00:26:42.821Z,69.30
2023-02-01T00:28:44.634Z,69.40
2023-02-01T00:30:46.319Z,69.20
2023-02-01T00:32:47.932Z,69.50
2023-02-01T00:34:49.534Z,69.40
2023-02-01T00:36:51.251Z,69.60
2023-02-01T00:38:52.908Z,69.60
2023-02-01T00:40:54.890Z,69.60
2023-02-01T00:42:58.347Z,69.60
2023-02-01T00:44:59.931Z,69.80
2023-02-01T00:47:01.605Z,69.90
2023-02-01T00:49:03.296Z,70.10
2023-02-01T00:51:09.411Z,70.30
2023-02-01T00:53:11.270Z,70.20
2023-02-01T00:55:13.112Z,70.10
2023-02-01T00:57:14.754Z,69.80
2023-02-01T00:59:16.793Z,69.60
2023-02-01T01:01:18.393Z,69.80
2023-02-01T01:03:20.033Z,70.00
2023-02-01T01:05:21.651Z,70.00
2023-02-01T01:07:23.399Z,69.70
2023-02-01T01:09:25.051Z,69.80
2023-02-01T01:11:28.168Z,69.70
2023-02-01T01:13:29.835Z,69.70
2023-02-01T01:15:31.665Z,69.60
2023-02-01T01:17:34.195Z,69.60
2023-02-01T01:19:35.878Z,69.60
2023-02-01T01:21:37.712Z,69.70
2023-02-01T01:23:39.487Z,69.40
2023-02-01T01:25:41.364Z,69.70
2023-02-01T01:27:42.997Z,69.90
2023-02-01T01:29:44.638Z,70.00
2023-02-01T01:31:46.396Z,70.00
2023-02-01T01:33:49.461Z,70.00
2023-02-01T01:35:51.572Z,69.70
2023-02-01T01:37:53.178Z,69.70
2023-02-01T01:39:56.730Z,70.00
2023-02-01T01:41:58.472Z,70.10
2023-02-01T01:44:08.004Z,70.10
2023-02-01T01:46:09.659Z,70.10
2023-02-01T01:48:37.581Z,70.20
2023-02-01T01:50:41.687Z,70.30
2023-02-01T01:52:44.931Z,70.40
2023-02-01T01:54:48.254Z,70.40
2023-02-01T01:56:54.938Z,70.50
2023-02-01T01:58:56.924Z,70.70
2023-02-01T02:00:58.647Z,70.50
2023-02-01T02:03:04.307Z,70.60
2023-02-01T02:05:06.394Z,70.50
2023-02-01T02:07:12.914Z,70.10
2023-02-01T02:09:14.915Z,70.10
2023-02-01T02:11:17.584Z,69.70
2023-02-01T02:13:19.676Z,69.60
2023-02-01T02:15:21.482Z,69.50
2023-02-01T02:17:37.296Z,69.40
2023-02-01T02:19:47.718Z,69.40
2023-02-01T02:22:01.999Z,69.50
2023-02-01T02:24:17.632Z,69.60
2023-02-01T02:26:38.147Z,69.70
2023-02-01T02:28:42.630Z,69.80
2023-02-01T02:31:02.243Z,69.80
2023-02-01T02:33:18.872Z,69.80
2023-02-01T02:35:23.387Z,69.70
2023-02-01T02:37:29.706Z,69.70
2023-02-01T02:39:46.370Z,69.70
2023-02-01T02:42:19.055Z,69.50
2023-02-01T02:44:58.232Z,69.50
2023-02-01T02:47:22.413Z,69.50
2023-02-01T02:49:38.029Z,69.50
2023-02-01T02:52:04.444Z,69.60
2023-02-01T02:54:27.016Z,69.60
2023-02-01T02:56:47.796Z,69.70
2023-02-01T02:59:08.316Z,70.00
2023-02-01T03:01:28.679Z,69.60
2023-02-01T03:03:49.107Z,69.90
2023-02-01T03:05:53.891Z,69.80
2023-02-01T03:07:59.440Z,70.00
2023-02-01T03:10:05.213Z,69.80
2023-02-01T03:12:29.114Z,69.90
2023-02-01T03:14:31.224Z,70.30
2023-02-01T03:16:35.536Z,70.40
2023-02-01T03:18:49.634Z,70.40
2023-02-01T03:20:53.321Z,70.60
2023-02-01T03:22:56.372Z,70.70
2023-02-01T03:25:02.387Z,70.60
2023-02-01T03:27:11.731Z,70.60
2023-02-01T03:29:15.011Z,70.70
2023-02-01T03:31:18.419Z,70.60
2023-02-01T03:33:22.149Z,70.40
2023-02-01T03:35:27.589Z,70.40
2023-02-01T03:37:29.351Z,70.50
2023-02-01T03:39:37.069Z,70.70
2023-02-01T03:41:42.568Z,70.50
2023-02-01T03:43:47.146Z,70.50
2023-02-01T03:45:51.407Z,70.70
2023-02-01T03:47:55.351Z,70.60
2023-02-01T03:50:00.260Z,70.60
2023-02-01T03:52:02.548Z,70.60
2023-02-01T03:54:06.186Z,70.40
2023-02-01T03:56:09.118Z,70.60
2023-02-01T03:58:10.746Z,70.40
2023-02-01T04:00:21.034Z,70.20
2023-02-01T04:02:25.618Z,70.00
2023-02-01T04:04:27.260Z,70.20
2023-02-01T04:06:30.891Z,70.50
2023-02-01T04:08:43.908Z,70.70
2023-02-01T04:10:45.676Z,70.80
2023-02-01T04:12:47.312Z,70.90
2023-02-01T04:14:48.925Z,70.80
2023-02-01T04:16:50.946Z,70.70
2023-02-01T04:18:55.066Z,70.90
2023-02-01T04:20:56.763Z,71.00
2023-02-01T04:22:58.416Z,71.10
2023-02-01T04:25:00.134Z,71.10
2023-02-01T04:27:03.661Z,70.90
2023-02-01T04:29:05.481Z,71.00
2023-02-01T04:31:07.236Z,71.00
2023-02-01T04:33:09.097Z,70.70
2023-02-01T04:35:10.844Z,70.90
2023-02-01T04:37:12.598Z,71.10
2023-02-01T04:39:14.252Z,71.00
2023-02-01T04:41:19.613Z,71.00
2023-02-01T04:43:21.264Z,70.90
2023-02-01T04:45:22.943Z,70.60
2023-02-01T04:47:24.584Z,70.60
2023-02-01T04:49:27.699Z,70.50
2023-02-01T04:51:29.438Z,70.60
2023-02-01T04:53:31.078Z,70.60
2023-02-01T04:55:32.751Z,71.00
2023-02-01T04:57:34.381Z,70.90
2023-02-01T04:59:36.178Z,70.70
2023-02-01T05:01:37.895Z,70.60
2023-02-01T05:03:39.684Z,70.80
2023-02-01T05:05:41.292Z,70.80
2023-02-01T05:07:43.005Z,70.70
2023-02-01T05:09:44.679Z,70.90
2023-02-01T05:12:05.226Z,70.80
2023-02-01T05:14:06.928Z,70.80
2023-02-01T05:16:08.640Z,70.70
2023-02-01T05:18:10.397Z,70.60
2023-02-01T05:20:12.074Z,70.50
2023-02-01T05:22:13.717Z,70.50
2023-02-01T05:24:20.493Z,70.70
2023-02-01T05:26:22.182Z,70.50
2023-02-01T05:28:23.905Z,70.50
2023-02-01T05:30:25.739Z,70.50
2023-02-01T05:32:27.516Z,70.20
2023-02-01T05:34:29.345Z,70.40
2023-02-01T05:36:31.447Z,70.40
2023-02-01T05:38:33.282Z,70.30
2023-02-01T05:40:34.933Z,70.40
2023-02-01T05:42:36.528Z,70.40
2023-02-01T05:44:38.195Z,70.30
2023-02-01T05:46:39.954Z,70.40
2023-02-01T05:48:42.211Z,70.50
2023-02-01T05:50:44.064Z,71.40
2023-02-01T05:52:45.716Z,70.40
2023-02-01T05:54:48.161Z,70.30
2023-02-01T05:56:49.808Z,70.40
2023-02-01T05:58:51.452Z,70.50
2023-02-01T06:00:53.121Z,70.80
2023-02-01T06:02:54.767Z,70.90
2023-02-01T06:04:56.441Z,71.00
2023-02-01T06:06:58.109Z,70.80
2023-02-01T06:09:01.017Z,70.00
2023-02-01T06:11:03.998Z,69.80
2023-02-01T06:13:05.673Z,69.70
2023-02-01T06:15:07.551Z,69.90
2023-02-01T06:17:09.301Z,69.80
2023-02-01T06:19:10.946Z,69.50
2023-02-01T06:21:14.520Z,69.50
2023-02-01T06:23:16.186Z,69.70
2023-02-01T06:25:17.988Z,69.90
2023-02-01T06:27:19.655Z,70.20
2023-02-01T06:29:21.274Z,70.40
2023-02-01T06:31:24.081Z,70.20
2023-02-01T06:33:26.080Z,70.10
2023-02-01T06:35:27.687Z,69.90
2023-02-01T06:37:30.452Z,70.00
2023-02-01T06:39:32.179Z,70.20
2023-02-01T06:41:35.555Z,70.20
2023-02-01T06:43:38.112Z,70.40
2023-02-01T06:45:39.817Z,70.70
2023-02-01T06:47:41.468Z,70.70
2023-02-01T06:49:43.119Z,70.80
2023-02-01T06:51:44.771Z,70.70
2023-02-01T06:53:46.467Z,70.60
2023-02-01T06:55:58.521Z,70.70
2023-02-01T06:58:00.250Z,70.60
2023-02-01T07:00:04.012Z,70.70
2023-02-01T07:02:05.706Z,70.60
2023-02-01T07:04:07.396Z,70.70
2023-02-01T07:06:09.395Z,70.50
2023-02-01T07:08:11.051Z,70.50
2023-02-01T07:10:12.823Z,70.70
2023-02-01T07:12:15.058Z,70.80
2023-02-01T07:14:16.673Z,71.10
2023-02-01T07:16:19.650Z,70.90
2023-02-01T07:18:21.356Z,70.90
2023-02-01T07:20:23.513Z,71.10
2023-02-01T07:22:25.303Z,71.20
2023-02-01T07:24:26.943Z,71.40
2023-02-01T07:26:28.689Z,71.30
2023-02-01T07:28:31.271Z,71.30
2023-02-01T07:30:32.978Z,71.20
2023-02-01T07:32:34.701Z,71.40
2023-02-01T07:34:36.479Z,71.40
2023-02-01T07:36:38.178Z,71.40
2023-02-01T07:38:39.895Z,71.20
2023-02-01T07:40:41.851Z,71.10
2023-02-01T07:42:43.553Z,70.70
2023-02-01T07:44:45.380Z,70.80
2023-02-01T07:46:47.022Z,70.80
2023-02-01T07:48:48.699Z,70.90
2023-02-01T07:50:57.939Z,71.00
2023-02-01T07:53:02.585Z,70.90
2023-02-01T07:55:04.468Z,70.60
2023-02-01T07:57:06.094Z,70.50
2023-02-01T07:59:08.651Z,70.20
2023-02-01T08:01:25.389Z,69.90
2023-02-01T08:03:27.245Z,69.80
2023-02-01T08:05:28.848Z,69.90
2023-02-01T08:07:30.535Z,69.80
2023-02-01T08:09:32.252Z,70.00
2023-02-01T08:11:33.911Z,70.00
2023-02-01T08:13:36.181Z,70.20
2023-02-01T08:15:37.955Z,70.40
2023-02-01T08:17:39.603Z,70.40
2023-02-01T08:19:41.242Z,70.10
2023-02-01T08:21:42.894Z,70.30
2023-02-01T08:23:44.654Z,70.50
2023-02-01T08:25:46.471Z,70.40
2023-02-01T08:27:48.174Z,70.30
2023-02-01T08:29:50.836Z,70.40
2023-02-01T08:31:52.874Z,70.60
2023-02-01T08:33:59.351Z,70.40
2023-02-01T08:36:05.048Z,70.60
2023-02-01T08:38:06.673Z,70.50
2023-02-01T08:40:08.740Z,70.40
2023-02-01T08:42:29.172Z,70.60
2023-02-01T08:44:30.838Z,70.50
2023-02-01T08:46:32.482Z,70.60
2023-02-01T08:48:35.067Z,70.50
2023-02-01T08:50:36.838Z,70.70
2023-02-01T08:52:38.474Z,70.90
2023-02-01T08:54:41.980Z,71.10
2023-02-01T08:56:43.634Z,71.20
2023-02-01T08:58:45.443Z,71.10
2023-02-01T09:00:49.009Z,70.90
2023-02-01T09:02:50.667Z,70.70
2023-02-01T09:04:52.414Z,70.70
2023-02-01T09:06:56.432Z,70.60
2023-02-01T09:08:58.123Z,70.60
2023-02-01T09:11:03.736Z,70.50
2023-02-01T09:13:05.458Z,70.60
2023-02-01T09:15:08.122Z,70.50
2023-02-01T09:17:09.940Z,70.30
2023-02-01T09:19:25.452Z,70.40
2023-02-01T09:21:28.339Z,70.50
2023-02-01T09:23:30.021Z,70.70
2023-02-01T09:25:31.675Z,71.00
2023-02-01T09:27:33.375Z,71.10
2023-02-01T09:29:35.033Z,71.10
2023-02-01T09:31:37.703Z,71.00
2023-02-01T09:33:41.139Z,71.10
2023-02-01T09:35:42.773Z,71.10
2023-02-01T09:37:44.542Z,70.80
2023-02-01T09:39:46.164Z,70.60
2023-02-01T09:41:55.197Z,70.50
2023-02-01T09:44:25.632Z,70.50
2023-02-01T09:46:29.345Z,70.50
2023-02-01T09:48:36.633Z,70.50
2023-02-01T09:50:42.719Z,70.50
2023-02-01T09:52:48.244Z,70.60
2023-02-01T09:55:10.121Z,70.70
2023-02-01T09:57:24.115Z,70.80
2023-02-01T09:59:39.141Z,70.70
2023-02-01T10:01:40.968Z,70.60
2023-02-01T10:03:42.747Z,70.60
2023-02-01T10:06:04.777Z,70.70
2023-02-01T10:08:14.103Z,70.60
2023-02-01T10:10:39.088Z,70.70
2023-02-01T10:12:46.951Z,70.70
2023-02-01T10:15:00.668Z,70.70
2023-02-01T10:17:26.113Z,71.50
2023-02-01T10:19:27.827Z,70.50
2023-02-01T10:21:39.956Z,70.50
2023-02-01T10:23:41.631Z,70.40
2023-02-01T10:25:49.759Z,70.20
2023-02-01T10:27:51.514Z,70.20
2023-02-01T10:29:58.470Z,70.00
2023-02-01T10:32:00.280Z,70.00
2023-02-01T10:34:05.741Z,70.00
2023-02-01T10:36:30.418Z,70.00
2023-02-01T10:38:33.785Z,70.00
2023-02-01T10:40:35.889Z,70.00
2023-02-01T10:42:37.718Z,70.10
2023-02-01T10:44:44.039Z,70.20
2023-02-01T10:46:45.917Z,70.10
2023-02-01T10:48:48.826Z,70.00
2023-02-01T10:50:54.362Z,69.90
2023-02-01T10:53:00.049Z,69.80
2023-02-01T10:55:20.283Z,69.70
2023-02-01T10:57:26.945Z,69.60
2023-02-01T10:59:30.148Z,69.60
2023-02-01T11:01:34.670Z,69.50
2023-02-01T11:03:45.642Z,69.30
2023-02-01T11:05:47.549Z,69.20
2023-02-01T11:07:50.824Z,69.20
2023-02-01T11:09:55.855Z,69.20
2023-02-01T11:11:59.048Z,69.20
2023-02-01T11:14:02.438Z,69.20
2023-02-01T11:16:05.239Z,69.20
2023-02-01T11:18:18.247Z,69.20
2023-02-01T11:20:21.611Z,70.00
2023-02-01T11:22:25.157Z,69.20
2023-02-01T11:24:32.144Z,69.40
2023-02-01T11:26:34.139Z,69.30
2023-02-01T11:28:38.173Z,69.30
2023-02-01T11:30:41.912Z,69.20
2023-02-01T11:32:43.609Z,69.20
2023-02-01T11:34:45.238Z,69.20
2023-02-01T11:36:47.811Z,69.00
2023-02-01T11:38:54.088Z,69.20
2023-02-01T11:40:56.013Z,69.20
2023-02-01T11:42:58.738Z,69.10
2023-02-01T11:45:20.885Z,69.00
2023-02-01T11:47:29.711Z,69.10
2023-02-01T11:49:31.691Z,69.10
2023-02-01T11:51:38.380Z,68.80
2023-02-01T11:54:00.308Z,68.80
2023-02-01T11:56:08.009Z,69.00
2023-02-01T11:58:28.156Z,68.70
2023-02-01T12:00:32.635Z,68.70
2023-02-01T12:02:41.830Z,68.40
2023-02-01T12:05:02.353Z,68.50
2023-02-01T12:07:15.539Z,68.60
2023-02-01T12:09:27.124Z,68.40
2023-02-01T12:11:41.965Z,68.50
2023-02-01T12:13:49.473Z,68.50
2023-02-01T12:16:03.253Z,68.40
2023-02-01T12:18:05.005Z,68.50
2023-02-01T12:20:33.517Z,68.40
2023-02-01T12:22:46.875Z,68.60
2023-02-01T12:24:51.222Z,68.70
2023-02-01T12:27:16.870Z,68.80
2023-02-01T12:29:21.432Z,68.80
2023-02-01T12:31:32.944Z,68.90
2023-02-01T12:33:47.589Z,68.70
2023-02-01T12:35:58.247Z,68.70
2023-02-01T12:38:00.056Z,68.70
2023-02-01T12:40:13.248Z,68.70
2023-02-01T12:42:24.086Z,68.80
2023-02-01T12:44:46.902Z,68.80
2023-02-01T12:46:55.223Z,68.70
2023-02-01T12:49:06.717Z,68.40
2023-02-01T12:51:14.565Z,68.50
2023-02-01T12:53:21.543Z,68.60
2023-02-01T12:55:33.735Z,68.40
2023-02-01T12:57:37.486Z,68.30
2023-02-01T12:59:43.453Z,68.40
2023-02-01T13:01:53.522Z,68.40
2023-02-01T13:04:12.412Z,68.10
2023-02-01T13:06:16.914Z,68.10
2023-02-01T13:08:22.433Z,68.00
2023-02-01T13:10:35.369Z,68.00
2023-02-01T13:12:44.227Z,67.60
2023-02-01T13:14:51.741Z,67.40
2023-02-01T13:16:57.386Z,67.50
2023-02-01T13:19:19.230Z,67.70
2023-02-01T13:21:30.124Z,67.90
2023-02-01T13:23:34.731Z,67.80
2023-02-01T13:25:40.831Z,68.00
2023-02-01T13:27:42.903Z,67.80
2023-02-01T13:30:08.101Z,67.70
2023-02-01T13:32:19.496Z,67.40
2023-02-01T13:34:31.104Z,67.40
2023-02-01T13:36:36.842Z,67.80
2023-02-01T13:38:41.494Z,67.50
2023-02-01T13:40:50.923Z,67.40
2023-02-01T13:42:57.878Z,67.70
2023-02-01T13:45:01.759Z,67.50
2023-02-01T13:47:04.756Z,67.40
2023-02-01T13:49:06.560Z,67.30
2023-02-01T13:51:08.704Z,67.50
2023-02-01T13:53:13.133Z,67.60
2023-02-01T13:55:21.244Z,67.60
2023-02-01T13:57:39.812Z,67.60
2023-02-01T13:59:41.511Z,67.70
2023-02-01T14:01:43.267Z,67.30
2023-02-01T14:03:46.144Z,67.20
2023-02-01T14:05:47.974Z,67.10
2023-02-01T14:08:10.764Z,67.10
2023-02-01T14:10:31.368Z,67.20
2023-02-01T14:12:43.895Z,67.10
2023-02-01T14:14:45.835Z,67.30
2023-02-01T14:16:53.986Z,67.20
2023-02-01T14:18:59.750Z,66.70
2023-02-01T14:21:22.042Z,67.10
2023-02-01T14:23:25.655Z,66.70
2023-02-01T14:25:32.803Z,66.90
2023-02-01T14:27:36.313Z,66.90
2023-02-01T14:29:39.454Z,67.00
2023-02-01T14:31:44.529Z,67.10
2023-02-01T14:33:46.799Z,67.00
2023-02-01T14:36:03.860Z,67.00
2023-02-01T14:38:08.013Z,67.00
2023-02-01T14:40:12.799Z,66.80
2023-02-01T14:42:29.131Z,66.80
2023-02-01T14:44:32.007Z,66.80
2023-02-01T14:46:52.579Z,67.00
2023-02-01T14:48:54.576Z,66.90
2023-02-01T14:50:58.588Z,66.60
2023-02-01T14:53:03.328Z,66.80
2023-02-01T14:55:10.436Z,66.60
2023-02-01T14:57:16.542Z,66.40
2023-02-01T14:59:21.634Z,66.80
2023-02-01T15:01:23.474Z,66.40
2023-02-01T15:03:31.506Z,66.30
2023-02-01T15:05:34.923Z,66.40
2023-02-01T15:07:36.626Z,66.80
2023-02-01T15:09:39.892Z,66.30
2023-02-01T15:11:55.198Z,66.30
2023-02-01T15:13:58.088Z,66.70
2023-02-01T15:16:05.862Z,66.70
2023-02-01T15:18:17.011Z,66.80
2023-02-01T15:20:18.962Z,66.50
2023-02-01T15:22:21.484Z,66.50
2023-02-01T15:24:24.921Z,66.20
2023-02-01T15:26:31.226Z,66.30
2023-02-01T15:28:33.211Z,66.00
2023-02-01T15:30:35.929Z,66.10
2023-02-01T15:32:39.591Z,66.30
2023-02-01T15:34:45.843Z,66.30
2023-02-01T15:37:00.646Z,66.30
2023-02-01T15:39:20.802Z,65.80
2023-02-01T15:41:22.811Z,66.00
2023-02-01T15:43:25.227Z,66.50
2023-02-01T15:45:28.449Z,66.30
2023-02-01T15:47:31.939Z,66.20
2023-02-01T15:49:37.692Z,66.30
2023-02-01T15:51:44.887Z,65.80
2023-02-01T15:53:49.051Z,66.20
2023-02-01T15:55:56.000Z,65.90
2023-02-01T15:57:58.334Z,66.00
2023-02-01T16:00:08.105Z,65.90
2023-02-01T16:02:36.564Z,66.10
2023-02-01T16:04:47.615Z,66.10
2023-02-01T16:06:53.723Z,66.90
2023-02-01T16:09:03.639Z,66.00
2023-02-01T16:11:08.131Z,66.00
2023-02-01T16:13:10.374Z,66.20
2023-02-01T16:15:12.044Z,66.00
2023-02-01T16:17:13.886Z,66.10
2023-02-01T16:19:16.157Z,66.20
2023-02-01T16:21:19.052Z,66.30
2023-02-01T16:23:21.414Z,66.10
2023-02-01T16:25:23.428Z,66.00
2023-02-01T16:27:25.674Z,65.70
2023-02-01T16:29:27.386Z,65.70
2023-02-01T16:31:30.579Z,65.80
2023-02-01T16:33:32.356Z,65.60
2023-02-01T16:35:38.806Z,66.00
2023-02-01T16:37:40.529Z,65.60
2023-02-01T16:39:42.418Z,65.70
2023-02-01T16:41:44.264Z,65.80
2023-02-01T16:43:46.075Z,65.80
2023-02-01T16:45:49.498Z,66.00
2023-02-01T16:47:54.562Z,66.20
2023-02-01T16:49:56.286Z,66.00
2023-02-01T16:51:59.483Z,66.10
2023-02-01T16:54:01.801Z,65.80
2023-02-01T16:56:11.401Z,65.70
2023-02-01T16:58:13.129Z,66.00
2023-02-01T17:00:24.428Z,65.70
2023-02-01T17:02:27.923Z,65.70
2023-02-01T17:04:29.997Z,66.00
2023-02-01T17:06:33.533Z,65.70
2023-02-01T17:08:36.494Z,65.90
2023-02-01T17:10:38.430Z,65.70
2023-02-01T17:12:41.252Z,65.90
2023-02-01T17:14:42.986Z,66.00
2023-02-01T17:16:45.750Z,66.00
2023-02-01T17:18:50.310Z,66.00
2023-02-01T17:20:53.057Z,66.00
2023-02-01T17:22:54.931Z,66.10
2023-02-01T17:24:56.651Z,65.90
2023-02-01T17:26:58.509Z,66.10
2023-02-01T17:29:00.258Z,66.00
2023-02-01T17:31:02.233Z,66.20
2023-02-01T17:33:16.893Z,66.10
2023-02-01T17:35:25.008Z,65.70
2023-02-01T17:37:28.422Z,65.40
2023-02-01T17:39:50.769Z,65.40
2023-02-01T17:41:52.473Z,65.60
2023-02-01T17:43:54.514Z,65.70
2023-02-01T17:46:01.444Z,65.90
2023-02-01T17:48:06.991Z,65.90
2023-02-01T17:50:09.025Z,65.80
2023-02-01T17:52:16.208Z,65.60
2023-02-01T17:54:19.928Z,65.70
2023-02-01T17:56:25.641Z,65.80
2023-02-01T17:58:31.707Z,66.10
2023-02-01T18:00:36.016Z,66.20
2023-02-01T18:02:38.593Z,65.80
2023-02-01T18:04:40.388Z,65.90
2023-02-01T18:06:42.277Z,65.90
2023-02-01T18:08:44.077Z,65.90
2023-02-01T18:10:47.380Z,65.90
2023-02-01T18:12:49.050Z,65.90
2023-02-01T18:14:50.985Z,65.80
2023-02-01T18:16:52.892Z,65.80
2023-02-01T18:18:55.158Z,65.80
2023-02-01T18:20:57.009Z,66.10
2023-02-01T18:22:58.807Z,65.60
2023-02-01T18:25:00.513Z,65.50
2023-02-01T18:27:02.245Z,65.20
2023-02-01T18:29:04.023Z,65.20
2023-02-01T18:31:06.206Z,65.40
2023-02-01T18:33:12.259Z,65.70
2023-02-01T18:35:20.090Z,65.70
2023-02-01T18:37:21.820Z,65.60
2023-02-01T18:39:23.553Z,65.40
2023-02-01T18:41:25.449Z,65.50
2023-02-01T18:43:27.159Z,65.40
2023-02-01T18:45:31.921Z,65.70
2023-02-01T18:47:33.640Z,65.50
2023-02-01T18:49:36.892Z,65.50
2023-02-01T18:51:39.568Z,65.70
2023-02-01T18:53:41.287Z,65.80
2023-02-01T18:55:43.003Z,65.60
2023-02-01T18:57:45.051Z,65.50
2023-02-01T18:59:46.744Z,65.40
2023-02-01T19:01:48.520Z,65.40
2023-02-01T19:03:53.910Z,65.40
2023-02-01T19:05:59.742Z,65.40
2023-02-01T19:08:01.466Z,65.20
2023-02-01T19:10:06.271Z,65.40
2023-02-01T19:12:08.051Z,65.70
2023-02-01T19:14:09.934Z,65.70
2023-02-01T19:16:13.407Z,65.70
2023-02-01T19:18:20.055Z,65.60
2023-02-01T19:20:23.426Z,65.50
2023-02-01T19:22:25.862Z,66.30
2023-02-01T19:24:28.185Z,65.50
2023-02-01T19:26:30.227Z,65.40
2023-02-01T19:28:31.955Z,65.60
2023-02-01T19:30:33.877Z,65.70
2023-02-01T19:32:35.629Z,65.60
2023-02-01T19:34:39.033Z,65.70
2023-02-01T19:36:42.755Z,65.50
2023-02-01T19:38:44.661Z,65.50
2023-02-01T19:40:48.473Z,65.50
2023-02-01T19:42:50.243Z,65.60
2023-02-01T19:44:52.469Z,65.50
2023-02-01T19:46:54.652Z,66.30
2023-02-01T19:48:56.428Z,65.60
2023-02-01T19:50:59.062Z,65.70
2023-02-01T19:53:01.031Z,65.80
2023-02-01T19:55:03.741Z,65.70
2023-02-01T19:57:05.705Z,65.90
2023-02-01T19:59:07.893Z,65.70
2023-02-01T20:01:09.644Z,65.40
2023-02-01T20:03:11.481Z,65.10
2023-02-01T20:05:13.509Z,65.40
2023-02-01T20:07:15.336Z,65.20
2023-02-01T20:09:21.502Z,65.40
2023-02-01T20:11:25.275Z,65.10
2023-02-01T20:13:27.152Z,65.30
2023-02-01T20:15:28.941Z,65.20
2023-02-01T20:17:32.898Z,65.40
2023-02-01T20:19:34.806Z,65.50
2023-02-01T20:21:37.719Z,65.50
2023-02-01T20:23:39.494Z,65.50
2023-02-01T20:25:42.135Z,65.50
2023-02-01T20:27:43.833Z,65.50
2023-02-01T20:29:45.701Z,65.60
2023-02-01T20:31:47.495Z,65.50
2023-02-01T20:33:49.284Z,65.60
2023-02-01T20:35:51.105Z,65.50
2023-02-01T20:38:01.739Z,65.40
2023-02-01T20:40:03.796Z,65.20
2023-02-01T20:42:05.615Z,65.20
2023-02-01T20:44:07.269Z,65.40
2023-02-01T20:46:09.812Z,65.40
2023-02-01T20:48:11.992Z,65.50
2023-02-01T20:50:13.695Z,65.70
2023-02-01T20:52:15.476Z,65.60
2023-02-01T20:54:17.338Z,65.50
2023-02-01T20:56:19.755Z,65.50
2023-02-01T20:58:21.875Z,65.40
2023-02-01T21:00:23.888Z,65.50
2023-02-01T21:02:25.678Z,65.40
2023-02-01T21:04:27.672Z,65.50
2023-02-01T21:06:29.435Z,65.50
2023-02-01T21:08:32.135Z,65.60
2023-02-01T21:10:34.031Z,65.50
2023-02-01T21:12:35.851Z,65.50
2023-02-01T21:14:37.569Z,65.60
2023-02-01T21:16:39.547Z,65.50
2023-02-01T21:18:41.408Z,65.50
2023-02-01T21:20:43.693Z,65.60
2023-02-01T21:22:45.473Z,65.50
2023-02-01T21:24:47.495Z,65.50
2023-02-01T21:26:49.176Z,65.50
2023-02-01T21:28:51.817Z,65.30
2023-02-01T21:30:53.538Z,65.40
2023-02-01T21:32:56.408Z,65.40
2023-02-01T21:35:01.024Z,65.40
2023-02-01T21:37:02.780Z,65.40
2023-02-01T21:39:05.696Z,65.40
2023-02-01T21:41:26.047Z,65.30
2023-02-01T21:43:27.797Z,65.40
2023-02-01T21:45:29.539Z,65.60
2023-02-01T21:47:31.270Z,65.40
2023-02-01T21:49:32.978Z,65.50
2023-02-01T21:51:35.612Z,66.30
2023-02-01T21:53:37.337Z,65.60
2023-02-01T21:55:39.078Z,65.70
2023-02-01T21:57:41.134Z,65.50
2023-02-01T21:59:43.365Z,65.50
2023-02-01T22:01:45.215Z,65.50
2023-02-01T22:03:46.839Z,65.50
2023-02-01T22:05:51.541Z,65.60
2023-02-01T22:07:53.177Z,65.50
2023-02-01T22:09:54.901Z,65.60
2023-02-01T22:11:56.858Z,66.40
2023-02-01T22:13:58.635Z,65.50
2023-02-01T22:16:00.253Z,65.50
2023-02-01T22:18:02.123Z,65.60
2023-02-01T22:20:04.574Z,65.50
2023-02-01T22:22:06.430Z,65.50
2023-02-01T22:24:09.560Z,65.50
2023-02-01T22:26:12.518Z,65.50
2023-02-01T22:28:32.341Z,65.60
2023-02-01T22:30:36.475Z,65.40
2023-02-01T22:32:38.215Z,65.50
2023-02-01T22:34:40.130Z,65.50
2023-02-01T22:36:41.948Z,65.70
2023-02-01T22:38:44.332Z,65.80
2023-02-01T22:40:46.043Z,65.80
2023-02-01T22:42:47.792Z,65.80
2023-02-01T22:44:49.399Z,65.90
2023-02-01T22:46:51.034Z,65.70
2023-02-01T22:48:52.682Z,65.70
2023-02-01T22:50:58.037Z,65.80
2023-02-01T22:52:59.728Z,65.80
2023-02-01T22:55:01.359Z,65.90
2023-02-01T22:57:03.535Z,65.90
2023-02-01T22:59:06.250Z,65.90
2023-02-01T23:01:09.394Z,65.90
2023-02-01T23:03:11.309Z,65.80
2023-02-01T23:05:13.022Z,65.90
2023-02-01T23:07:14.644Z,65.90
2023-02-01T23:09:17.721Z,66.00
2023-02-01T23:11:19.459Z,65.80
2023-02-01T23:13:21.129Z,65.70
2023-02-01T23:15:23.154Z,65.80
2023-02-01T23:17:24.981Z,65.80
2023-02-01T23:19:26.582Z,65.80
2023-02-01T23:21:28.341Z,65.80
2023-02-01T23:23:29.974Z,65.90
2023-02-01T23:25:31.586Z,65.90
2023-02-01T23:27:33.200Z,65.90
2023-02-01T23:29:34.838Z,65.80
2023-02-01T23:31:36.640Z,65.80
2023-02-01T23:33:38.717Z,65.90
2023-02-01T23:35:40.461Z,65.90
2023-02-01T23:37:42.132Z,66.00
2023-02-01T23:39:43.760Z,66.00
2023-02-01T23:41:45.381Z,66.10
2023-02-01T23:43:59.256Z,66.10
2023-02-01T23:46:00.981Z,66.30
2023-02-01T23:48:02.728Z,66.30
2023-02-01T23:50:04.560Z,66.20
2023-02-01T23:52:07.060Z,66.20
2023-02-01T23:54:09.528Z,66.20
2023-02-01T23:56:22.635Z,66.20
2023-02-01T23:58:24.688Z,66.10
